sensor_id;sensor_type;location;lat;lon;timestamp;pressure;altitude;pressure_sealevel;temperature
64947;BMP280;51469;52.150;4.682;2023-02-19T00:00:28;101987.13;;;17.40
64947;BMP280;51469;52.150;4.682;2023-02-19T00:02:53;101980.78;;;17.39
64947;BMP280;51469;52.150;4.682;2023-02-19T00:05:20;101984.31;;;17.46
64947;BMP280;51469;52.150;4.682;2023-02-19T00:07:46;101989.13;;;17.50
64947;BMP280;51469;52.150;4.682;2023-02-19T00:10:11;101983.16;;;17.44
64947;BMP280;51469;52.150;4.682;2023-02-19T00:12:37;101987.50;;;17.38
64947;BMP280;51469;52.150;4.682;2023-02-19T00:15:02;101974.84;;;17.44
64947;BMP280;51469;52.150;4.682;2023-02-19T00:17:29;101999.41;;;17.32
64947;BMP280;51469;52.150;4.682;2023-02-19T00:19:55;101988.28;;;17.35
64947;BMP280;51469;52.150;4.682;2023-02-19T00:22:20;101974.81;;;17.37
64947;BMP280;51469;52.150;4.682;2023-02-19T00:24:47;101990.63;;;17.12
64947;BMP280;51469;52.150;4.682;2023-02-19T00:27:12;101992.25;;;17.27
64947;BMP280;51469;52.150;4.682;2023-02-19T00:29:37;101988.69;;;17.16
64947;BMP280;51469;52.150;4.682;2023-02-19T00:32:03;101999.34;;;16.86
64947;BMP280;51469;52.150;4.682;2023-02-19T00:34:29;102007.22;;;16.70
64947;BMP280;51469;52.150;4.682;2023-02-19T00:36:54;102006.47;;;16.94
64947;BMP280;51469;52.150;4.682;2023-02-19T00:39:19;102014.00;;;17.04
64947;BMP280;51469;52.150;4.682;2023-02-19T00:41:45;102013.63;;;16.95
64947;BMP280;51469;52.150;4.682;2023-02-19T00:44:12;102013.63;;;17.02
64947;BMP280;51469;52.150;4.682;2023-02-19T00:46:40;102022.34;;;17.04
64947;BMP280;51469;52.150;4.682;2023-02-19T00:49:07;102014.44;;;17.13
64947;BMP280;51469;52.150;4.682;2023-02-19T00:51:35;102014.03;;;17.11
64947;BMP280;51469;52.150;4.682;2023-02-19T00:54:01;102023.53;;;17.00
64947;BMP280;51469;52.150;4.682;2023-02-19T00:56:26;102032.56;;;16.79
64947;BMP280;51469;52.150;4.682;2023-02-19T00:58:52;102022.25;;;16.76
64947;BMP280;51469;52.150;4.682;2023-02-19T01:01:18;102025.47;;;16.89
64947;BMP280;51469;52.150;4.682;2023-02-19T01:03:44;102025.47;;;16.82
64947;BMP280;51469;52.150;4.682;2023-02-19T01:06:10;102019.88;;;16.78
64947;BMP280;51469;52.150;4.682;2023-02-19T01:08:37;102029.38;;;16.67
64947;BMP280;51469;52.150;4.682;2023-02-19T01:11:03;102026.25;;;16.92
64947;BMP280;51469;52.150;4.682;2023-02-19T01:13:30;102034.13;;;16.70
64947;BMP280;51469;52.150;4.682;2023-02-19T01:18:33;102026.16;;;16.58
64947;BMP280;51469;52.150;4.682;2023-02-19T01:20:58;102025.41;;;16.64
64947;BMP280;51469;52.150;4.682;2023-02-19T01:23:24;102034.94;;;16.84
64947;BMP280;51469;52.150;4.682;2023-02-19T01:25:49;102030.94;;;16.64
64947;BMP280;51469;52.150;4.682;2023-02-19T01:28:15;102040.75;;;16.44
64947;BMP280;51469;52.150;4.682;2023-02-19T01:30:40;102041.94;;;16.50
64947;BMP280;51469;52.150;4.682;2023-02-19T01:33:07;102034.06;;;16.63
64947;BMP280;51469;52.150;4.682;2023-02-19T01:35:32;102041.13;;;16.39
64947;BMP280;51469;52.150;4.682;2023-02-19T01:37:58;102032.09;;;16.56
64947;BMP280;51469;52.150;4.682;2023-02-19T01:40:24;102033.25;;;16.52
64947;BMP280;51469;52.150;4.682;2023-02-19T01:42:50;102046.69;;;16.50
64947;BMP280;51469;52.150;4.682;2023-02-19T01:45:24;102038.00;;;16.48
64947;BMP280;51469;52.150;4.682;2023-02-19T01:48:02;102051.38;;;16.35
64947;BMP280;51469;52.150;4.682;2023-02-19T01:50:33;102040.25;;;16.28
64947;BMP280;51469;52.150;4.682;2023-02-19T01:53:02;102035.47;;;16.18
64947;BMP280;51469;52.150;4.682;2023-02-19T01:55:30;102055.25;;;16.20
64947;BMP280;51469;52.150;4.682;2023-02-19T01:57:56;102057.38;;;16.51
64947;BMP280;51469;52.150;4.682;2023-02-19T02:00:21;102049.91;;;16.62
64947;BMP280;51469;52.150;4.682;2023-02-19T02:02:50;102050.66;;;16.52
64947;BMP280;51469;52.150;4.682;2023-02-19T02:05:30;102056.28;;;16.70
64947;BMP280;51469;52.150;4.682;2023-02-19T02:07:57;102064.06;;;16.36
64947;BMP280;51469;52.150;4.682;2023-02-19T02:10:43;102058.41;;;16.22
64947;BMP280;51469;52.150;4.682;2023-02-19T02:13:08;102062.84;;;16.37
64947;BMP280;51469;52.150;4.682;2023-02-19T02:15:41;102065.63;;;16.37
64947;BMP280;51469;52.150;4.682;2023-02-19T02:18:28;102068.81;;;16.39
64947;BMP280;51469;52.150;4.682;2023-02-19T02:27:10;102077.75;;;16.15
64947;BMP280;51469;52.150;4.682;2023-02-19T02:32:11;102070.16;;;16.05
64947;BMP280;51469;52.150;4.682;2023-02-19T02:37:16;102068.84;;;16.50
64947;BMP280;51469;52.150;4.682;2023-02-19T02:39:44;102066.44;;;16.45
64947;BMP280;51469;52.150;4.682;2023-02-19T02:42:11;102063.22;;;16.32
64947;BMP280;51469;52.150;4.682;2023-02-19T02:44:55;102064.78;;;16.33
64947;BMP280;51469;52.150;4.682;2023-02-19T02:47:49;102076.69;;;16.37
64947;BMP280;51469;52.150;4.682;2023-02-19T02:50:22;102081.41;;;16.33
64947;BMP280;51469;52.150;4.682;2023-02-19T02:52:54;102071.94;;;16.34
64947;BMP280;51469;52.150;4.682;2023-02-19T02:55:42;102068.72;;;16.25
64947;BMP280;51469;52.150;4.682;2023-02-19T02:58:09;102075.09;;;16.29
64947;BMP280;51469;52.150;4.682;2023-02-19T03:00:35;102085.41;;;16.36
64947;BMP280;51469;52.150;4.682;2023-02-19T03:03:23;102082.31;;;16.44
64947;BMP280;51469;52.150;4.682;2023-02-19T03:05:51;102083.91;;;16.52
64947;BMP280;51469;52.150;4.682;2023-02-19T03:08:26;102092.66;;;16.61
64947;BMP280;51469;52.150;4.682;2023-02-19T03:10:53;102081.56;;;16.58
64947;BMP280;51469;52.150;4.682;2023-02-19T03:13:31;102094.16;;;16.41
64947;BMP280;51469;52.150;4.682;2023-02-19T03:16:21;102106.78;;;16.39
64947;BMP280;51469;52.150;4.682;2023-02-19T03:19:09;102106.03;;;16.42
64947;BMP280;51469;52.150;4.682;2023-02-19T03:22:16;102106.78;;;16.39
64947;BMP280;51469;52.150;4.682;2023-02-19T03:25:06;102109.28;;;16.58
64947;BMP280;51469;52.150;4.682;2023-02-19T03:27:53;102109.16;;;16.37
64947;BMP280;51469;52.150;4.682;2023-02-19T03:30:23;102113.97;;;16.47
64947;BMP280;51469;52.150;4.682;2023-02-19T03:32:57;102105.25;;;16.48
64947;BMP280;51469;52.150;4.682;2023-02-19T03:35:31;102109.28;;;16.54
64947;BMP280;51469;52.150;4.682;2023-02-19T03:38:08;102111.22;;;16.50
64947;BMP280;51469;52.150;4.682;2023-02-19T03:40:43;102110.00;;;16.44
64947;BMP280;51469;52.150;4.682;2023-02-19T03:43:30;102107.22;;;16.44
64947;BMP280;51469;52.150;4.682;2023-02-19T03:46:12;102125.16;;;16.64
64947;BMP280;51469;52.150;4.682;2023-02-19T03:48:59;102133.06;;;16.62
64947;BMP280;51469;52.150;4.682;2023-02-19T03:51:31;102123.56;;;16.63
64947;BMP280;51469;52.150;4.682;2023-02-19T04:07:34;102150.38;;;16.45
64947;BMP280;51469;52.150;4.682;2023-02-19T04:10:02;102137.72;;;16.44
64947;BMP280;51469;52.150;4.682;2023-02-19T04:12:28;102151.03;;;16.28
64947;BMP280;51469;52.150;4.682;2023-02-19T04:15:02;102157.03;;;16.37
64947;BMP280;51469;52.150;4.682;2023-02-19T04:17:34;102155.19;;;16.55
64947;BMP280;51469;52.150;4.682;2023-02-19T04:20:02;102151.13;;;16.42
64947;BMP280;51469;52.150;4.682;2023-02-19T04:22:29;102159.81;;;16.37
64947;BMP280;51469;52.150;4.682;2023-02-19T04:24:55;102162.16;;;16.35
64947;BMP280;51469;52.150;4.682;2023-02-19T04:27:21;102165.44;;;16.51
64947;BMP280;51469;52.150;4.682;2023-02-19T04:29:46;102171.44;;;16.57
64947;BMP280;51469;52.150;4.682;2023-02-19T04:32:12;102170.16;;;16.47
64947;BMP280;51469;52.150;4.682;2023-02-19T04:34:38;102185.06;;;16.29
64947;BMP280;51469;52.150;4.682;2023-02-19T04:37:04;102191.84;;;16.38
64947;BMP280;51469;52.150;4.682;2023-02-19T04:39:30;102196.00;;;16.11
64947;BMP280;51469;52.150;4.682;2023-02-19T04:41:55;102209.63;;;16.34
64947;BMP280;51469;52.150;4.682;2023-02-19T04:44:21;102199.69;;;16.26
64947;BMP280;51469;52.150;4.682;2023-02-19T04:46:46;102215.91;;;16.27
64947;BMP280;51469;52.150;4.682;2023-02-19T04:49:12;102217.13;;;16.33
64947;BMP280;51469;52.150;4.682;2023-02-19T04:51:38;102199.19;;;16.17
64947;BMP280;51469;52.150;4.682;2023-02-19T04:54:04;102213.50;;;16.22
64947;BMP280;51469;52.150;4.682;2023-02-19T04:56:29;102220.69;;;16.30
64947;BMP280;51469;52.150;4.682;2023-02-19T04:58:55;102218.97;;;16.15
64947;BMP280;51469;52.150;4.682;2023-02-19T05:01:20;102220.69;;;16.30
64947;BMP280;51469;52.150;4.682;2023-02-19T05:03:46;102221.44;;;16.27
64947;BMP280;51469;52.150;4.682;2023-02-19T05:06:12;102234.75;;;16.11
64947;BMP280;51469;52.150;4.682;2023-02-19T05:08:38;102248.31;;;16.23
64947;BMP280;51469;52.150;4.682;2023-02-19T05:11:05;102247.59;;;16.33
64947;BMP280;51469;52.150;4.682;2023-02-19T05:13:31;102241.81;;;16.49
64947;BMP280;51469;52.150;4.682;2023-02-19T05:16:01;102258.09;;;16.57
64947;BMP280;51469;52.150;4.682;2023-02-19T05:18:27;102258.69;;;16.33
64947;BMP280;51469;52.150;4.682;2023-02-19T05:20:53;102256.81;;;16.41
64947;BMP280;51469;52.150;4.682;2023-02-19T05:23:19;102265.03;;;16.34
64947;BMP280;51469;52.150;4.682;2023-02-19T05:25:45;102259.66;;;16.51
64947;BMP280;51469;52.150;4.682;2023-02-19T05:28:10;102250.22;;;16.63
64947;BMP280;51469;52.150;4.682;2023-02-19T05:30:47;102254.63;;;16.67
64947;BMP280;51469;52.150;4.682;2023-02-19T05:33:13;102255.56;;;16.31
64947;BMP280;51469;52.150;4.682;2023-02-19T05:35:40;102247.59;;;16.33
64947;BMP280;51469;52.150;4.682;2023-02-19T05:38:05;102259.59;;;16.44
64947;BMP280;51469;52.150;4.682;2023-02-19T05:40:32;102251.28;;;16.44
64947;BMP280;51469;52.150;4.682;2023-02-19T05:42:58;102252.44;;;16.36
64947;BMP280;51469;52.150;4.682;2023-02-19T05:45:23;102261.72;;;16.18
64947;BMP280;51469;52.150;4.682;2023-02-19T05:47:49;102262.66;;;16.32
64947;BMP280;51469;52.150;4.682;2023-02-19T05:50:14;102262.53;;;16.18
64947;BMP280;51469;52.150;4.682;2023-02-19T05:52:39;102273.84;;;16.43
64947;BMP280;51469;52.150;4.682;2023-02-19T05:55:05;102267.09;;;16.44
64947;BMP280;51469;52.150;4.682;2023-02-19T05:57:30;102281.16;;;16.68
64947;BMP280;51469;52.150;4.682;2023-02-19T05:59:56;102282.53;;;16.45
64947;BMP280;51469;52.150;4.682;2023-02-19T06:02:21;102281.81;;;16.51
64947;BMP280;51469;52.150;4.682;2023-02-19T06:04:46;102279.44;;;16.46
64947;BMP280;51469;52.150;4.682;2023-02-19T06:07:12;102291.09;;;16.69
64947;BMP280;51469;52.150;4.682;2023-02-19T06:09:37;102299.00;;;16.74
64947;BMP280;51469;52.150;4.682;2023-02-19T06:12:03;102295.25;;;16.46
64947;BMP280;51469;52.150;4.682;2023-02-19T06:14:28;102289.66;;;16.42
64947;BMP280;51469;52.150;4.682;2023-02-19T06:16:53;102292.00;;;16.40
64947;BMP280;51469;52.150;4.682;2023-02-19T06:19:19;102291.13;;;16.29
64947;BMP280;51469;52.150;4.682;2023-02-19T06:21:44;102296.63;;;16.26
64947;BMP280;51469;52.150;4.682;2023-02-19T06:24:10;102303.63;;;16.16
64947;BMP280;51469;52.150;4.682;2023-02-19T06:26:37;102311.94;;;16.16
64947;BMP280;51469;52.150;4.682;2023-02-19T06:29:02;102316.06;;;16.29
64947;BMP280;51469;52.150;4.682;2023-02-19T06:31:28;102308.66;;;16.44
64947;BMP280;51469;52.150;4.682;2023-02-19T06:33:53;102316.63;;;16.49
64947;BMP280;51469;52.150;4.682;2023-02-19T06:36:20;102318.56;;;16.41
64947;BMP280;51469;52.150;4.682;2023-02-19T06:38:46;102318.28;;;16.57
64947;BMP280;51469;52.150;4.682;2023-02-19T06:41:11;102319.69;;;16.37
64947;BMP280;51469;52.150;4.682;2023-02-19T06:43:37;102313.28;;;16.29
64947;BMP280;51469;52.150;4.682;2023-02-19T06:46:04;102324.44;;;16.36
64947;BMP280;51469;52.150;4.682;2023-02-19T06:48:30;102317.00;;;16.47
64947;BMP280;51469;52.150;4.682;2023-02-19T06:50:56;102330.09;;;16.50
64947;BMP280;51469;52.150;4.682;2023-02-19T06:53:21;102335.56;;;16.43
64947;BMP280;51469;52.150;4.682;2023-02-19T06:56:18;102336.47;;;16.54
64947;BMP280;51469;52.150;4.682;2023-02-19T06:58:44;102336.31;;;16.37
64947;BMP280;51469;52.150;4.682;2023-02-19T07:01:10;102342.38;;;16.49
64947;BMP280;51469;52.150;4.682;2023-02-19T07:03:35;102336.25;;;16.33
64947;BMP280;51469;52.150;4.682;2023-02-19T07:06:01;102355.41;;;16.49
64947;BMP280;51469;52.150;4.682;2023-02-19T07:08:26;102365.69;;;16.48
64947;BMP280;51469;52.150;4.682;2023-02-19T07:10:56;102371.69;;;16.54
64947;BMP280;51469;52.150;4.682;2023-02-19T07:13:22;102372.16;;;16.59
64947;BMP280;51469;52.150;4.682;2023-02-19T07:15:48;102377.13;;;16.43
64947;BMP280;51469;52.150;4.682;2023-02-19T07:18:13;102382.28;;;16.41
64947;BMP280;51469;52.150;4.682;2023-02-19T07:20:39;102381.56;;;16.51
64947;BMP280;51469;52.150;4.682;2023-02-19T07:23:04;102392.72;;;16.58
64947;BMP280;51469;52.150;4.682;2023-02-19T07:25:30;102392.59;;;16.44
64947;BMP280;51469;52.150;4.682;2023-02-19T07:27:55;102398.19;;;16.51
64947;BMP280;51469;52.150;4.682;2023-02-19T07:30:21;102401.94;;;16.33
64947;BMP280;51469;52.150;4.682;2023-02-19T07:32:46;102411.50;;;16.39
64947;BMP280;51469;52.150;4.682;2023-02-19T07:35:11;102416.38;;;16.49
64947;BMP280;51469;52.150;4.682;2023-02-19T07:37:37;102418.81;;;16.54
64947;BMP280;51469;52.150;4.682;2023-02-19T07:40:02;102422.03;;;16.59
64947;BMP280;51469;52.150;4.682;2023-02-19T07:42:28;102424.13;;;16.69
64947;BMP280;51469;52.150;4.682;2023-02-19T07:44:53;102429.06;;;16.53
64947;BMP280;51469;52.150;4.682;2023-02-19T07:47:19;102432.34;;;16.62
64947;BMP280;51469;52.150;4.682;2023-02-19T07:49:44;102441.09;;;16.64
64947;BMP280;51469;52.150;4.682;2023-02-19T07:52:09;102448.34;;;16.76
64947;BMP280;51469;52.150;4.682;2023-02-19T07:54:35;102448.34;;;16.79
64947;BMP280;51469;52.150;4.682;2023-02-19T07:57:00;102450.78;;;16.84
64947;BMP280;51469;52.150;4.682;2023-02-19T07:59:25;102458.75;;;16.86
64947;BMP280;51469;52.150;4.682;2023-02-19T08:01:51;102456.34;;;16.81
64947;BMP280;51469;52.150;4.682;2023-02-19T08:04:35;102462.50;;;16.67
64947;BMP280;51469;52.150;4.682;2023-02-19T08:07:00;102460.56;;;16.71
64947;BMP280;51469;52.150;4.682;2023-02-19T08:09:25;102463.75;;;16.73
64947;BMP280;51469;52.150;4.682;2023-02-19T08:11:51;102458.41;;;16.54
64947;BMP280;51469;52.150;4.682;2023-02-19T08:14:35;102459.78;;;16.74
64947;BMP280;51469;52.150;4.682;2023-02-19T08:17:00;102453.97;;;16.46
64947;BMP280;51469;52.150;4.682;2023-02-19T08:19:26;102464.72;;;16.55
64947;BMP280;51469;52.150;4.682;2023-02-19T08:21:51;102460.84;;;16.59
64947;BMP280;51469;52.150;4.682;2023-02-19T08:24:17;102469.91;;;16.56
64947;BMP280;51469;52.150;4.682;2023-02-19T08:26:43;102471.47;;;16.54
64947;BMP280;51469;52.150;4.682;2023-02-19T08:29:08;102477.28;;;16.45
64947;BMP280;51469;52.150;4.682;2023-02-19T08:31:34;102482.31;;;16.66
64947;BMP280;51469;52.150;4.682;2023-02-19T08:34:00;102483.69;;;16.49
64947;BMP280;51469;52.150;4.682;2023-02-19T08:36:25;102497.78;;;16.70
64947;BMP280;51469;52.150;4.682;2023-02-19T08:38:51;102486.44;;;16.82
64947;BMP280;51469;52.150;4.682;2023-02-19T08:41:16;102496.19;;;17.09
64947;BMP280;51469;52.150;4.682;2023-02-19T08:43:42;102494.91;;;17.00
64947;BMP280;51469;52.150;4.682;2023-02-19T08:46:09;102497.09;;;17.17
64947;BMP280;51469;52.150;4.682;2023-02-19T08:48:35;102485.28;;;17.30
64947;BMP280;51469;52.150;4.682;2023-02-19T08:51:02;102482.63;;;16.97
64947;BMP280;51469;52.150;4.682;2023-02-19T08:53:30;102481.06;;;17.00
64947;BMP280;51469;52.150;4.682;2023-02-19T08:55:56;102476.22;;;16.93
64947;BMP280;51469;52.150;4.682;2023-02-19T08:58:21;102496.09;;;16.99
64947;BMP280;51469;52.150;4.682;2023-02-19T09:03:22;102488.31;;;17.11
64947;BMP280;51469;52.150;4.682;2023-02-19T09:05:47;102503.34;;;17.10
64947;BMP280;51469;52.150;4.682;2023-02-19T09:08:13;102505.78;;;17.18
64947;BMP280;51469;52.150;4.682;2023-02-19T09:10:38;102515.88;;;16.97
64947;BMP280;51469;52.150;4.682;2023-02-19T09:13:04;102515.91;;;17.01
64947;BMP280;51469;52.150;4.682;2023-02-19T09:15:29;102528.69;;;17.09
64947;BMP280;51469;52.150;4.682;2023-02-19T09:17:55;102524.63;;;16.99
64947;BMP280;51469;52.150;4.682;2023-02-19T09:20:20;102520.34;;;17.05
64947;BMP280;51469;52.150;4.682;2023-02-19T09:22:46;102531.09;;;17.10
64947;BMP280;51469;52.150;4.682;2023-02-19T09:25:11;102539.44;;;17.17
64947;BMP280;51469;52.150;4.682;2023-02-19T09:27:36;102546.22;;;17.16
64947;BMP280;51469;52.150;4.682;2023-02-19T09:30:02;102564.94;;;17.26
64947;BMP280;51469;52.150;4.682;2023-02-19T09:32:31;102570.88;;;17.28
64947;BMP280;51469;52.150;4.682;2023-02-19T09:34:57;102572.94;;;17.35
64947;BMP280;51469;52.150;4.682;2023-02-19T09:37:26;102569.44;;;17.41
64947;BMP280;51469;52.150;4.682;2023-02-19T09:39:52;102570.59;;;17.40
64947;BMP280;51469;52.150;4.682;2023-02-19T09:42:21;102577.00;;;17.48
64947;BMP280;51469;52.150;4.682;2023-02-19T09:44:49;102583.84;;;17.57
64947;BMP280;51469;52.150;4.682;2023-02-19T09:47:23;102583.84;;;17.57
64947;BMP280;51469;52.150;4.682;2023-02-19T09:49:53;102583.03;;;17.53
64947;BMP280;51469;52.150;4.682;2023-02-19T09:54:48;102597.91;;;17.35
64947;BMP280;51469;52.150;4.682;2023-02-19T09:57:18;102598.81;;;17.46
64947;BMP280;51469;52.150;4.682;2023-02-19T09:59:49;102614.81;;;17.59
64947;BMP280;51469;52.150;4.682;2023-02-19T10:02:24;102605.00;;;17.32
64947;BMP280;51469;52.150;4.682;2023-02-19T10:04:50;102607.56;;;17.51
64947;BMP280;51469;52.150;4.682;2023-02-19T10:07:22;102606.97;;;17.75
64947;BMP280;51469;52.150;4.682;2023-02-19T10:10:00;102618.88;;;17.72
64947;BMP280;51469;52.150;4.682;2023-02-19T10:12:29;102626.72;;;17.63
64947;BMP280;51469;52.150;4.682;2023-02-19T10:15:08;102618.03;;;17.65
64947;BMP280;51469;52.150;4.682;2023-02-19T10:17:38;102620.34;;;17.59
64947;BMP280;51469;52.150;4.682;2023-02-19T10:20:04;102620.69;;;17.54
64947;BMP280;51469;52.150;4.682;2023-02-19T10:22:31;102635.28;;;17.44
64947;BMP280;51469;52.150;4.682;2023-02-19T10:24:59;102640.19;;;17.61
64947;BMP280;51469;52.150;4.682;2023-02-19T10:27:29;102641.78;;;17.62
64947;BMP280;51469;52.150;4.682;2023-02-19T10:29:55;102645.00;;;17.64
64947;BMP280;51469;52.150;4.682;2023-02-19T10:32:24;102644.91;;;17.57
64947;BMP280;51469;52.150;4.682;2023-02-19T10:35:11;102660.16;;;17.77
64947;BMP280;51469;52.150;4.682;2023-02-19T10:37:48;102661.31;;;17.69
64947;BMP280;51469;52.150;4.682;2023-02-19T10:40:17;102650.47;;;17.60
64947;BMP280;51469;52.150;4.682;2023-02-19T10:42:48;102649.63;;;17.50
64947;BMP280;51469;52.150;4.682;2023-02-19T10:45:22;102649.28;;;17.58
64947;BMP280;51469;52.150;4.682;2023-02-19T10:47:49;102652.84;;;17.58
64947;BMP280;51469;52.150;4.682;2023-02-19T10:50:24;102658.44;;;17.62
64947;BMP280;51469;52.150;4.682;2023-02-19T10:52:52;102661.44;;;17.46
64947;BMP280;51469;52.150;4.682;2023-02-19T10:57:44;102650.59;;;17.71
64947;BMP280;51469;52.150;4.682;2023-02-19T11:02:39;102646.44;;;17.51
64947;BMP280;51469;52.150;4.682;2023-02-19T11:07:38;102652.38;;;17.13
64947;BMP280;51469;52.150;4.682;2023-02-19T11:10:19;102653.84;;;17.07
64947;BMP280;51469;52.150;4.682;2023-02-19T11:12:48;102666.16;;;17.06
64947;BMP280;51469;52.150;4.682;2023-02-19T11:15:23;102657.25;;;17.23
64947;BMP280;51469;52.150;4.682;2023-02-19T11:20:27;102658.06;;;17.27
64947;BMP280;51469;52.150;4.682;2023-02-19T11:22:56;102666.16;;;17.42
64947;BMP280;51469;52.150;4.682;2023-02-19T11:25:23;102665.06;;;17.50
64947;BMP280;51469;52.150;4.682;2023-02-19T11:27:54;102671.13;;;17.63
64947;BMP280;51469;52.150;4.682;2023-02-19T11:32:51;102682.28;;;17.70
64947;BMP280;51469;52.150;4.682;2023-02-19T11:35:21;102673.59;;;17.71
64947;BMP280;51469;52.150;4.682;2023-02-19T11:40:34;102670.38;;;17.66
64947;BMP280;51469;52.150;4.682;2023-02-19T11:46:03;102655.28;;;18.07
64947;BMP280;51469;52.150;4.682;2023-02-19T11:56:48;102668.09;;;18.25
64947;BMP280;51469;52.150;4.682;2023-02-19T11:59:47;102665.94;;;18.01
64947;BMP280;51469;52.150;4.682;2023-02-19T12:13:17;102696.16;;;16.97
64947;BMP280;51469;52.150;4.682;2023-02-19T12:26:55;102697.56;;;16.32
64947;BMP280;51469;52.150;4.682;2023-02-19T12:38:32;102708.47;;;16.44
64947;BMP280;51469;52.150;4.682;2023-02-19T12:43:26;102728.66;;;16.22
64947;BMP280;51469;52.150;4.682;2023-02-19T12:48:25;102731.78;;;16.43
64947;BMP280;51469;52.150;4.682;2023-02-19T12:50:57;102738.22;;;16.25
64947;BMP280;51469;52.150;4.682;2023-02-19T12:55:51;102766.66;;;16.44
64947;BMP280;51469;52.150;4.682;2023-02-19T12:58:48;102775.56;;;16.34
64947;BMP280;51469;52.150;4.682;2023-02-19T13:01:19;102776.06;;;16.17
64947;BMP280;51469;52.150;4.682;2023-02-19T13:03:57;102780.00;;;16.16
64947;BMP280;51469;52.150;4.682;2023-02-19T13:06:42;102779.94;;;16.13
64947;BMP280;51469;52.150;4.682;2023-02-19T13:09:23;102787.63;;;16.00
64947;BMP280;51469;52.150;4.682;2023-02-19T13:11:57;102781.28;;;16.22
64947;BMP280;51469;52.150;4.682;2023-02-19T13:14:44;102769.47;;;16.03
64947;BMP280;51469;52.150;4.682;2023-02-19T13:17:28;102779.94;;;16.13
64947;BMP280;51469;52.150;4.682;2023-02-19T13:20:00;102777.69;;;16.22
64947;BMP280;51469;52.150;4.682;2023-02-19T13:22:45;102773.13;;;16.29
64947;BMP280;51469;52.150;4.682;2023-02-19T13:25:48;102783.59;;;16.39
64947;BMP280;51469;52.150;4.682;2023-02-19T13:36:57;102812.03;;;16.36
64947;BMP280;51469;52.150;4.682;2023-02-19T13:39:23;102822.03;;;16.22
64947;BMP280;51469;52.150;4.682;2023-02-19T13:41:51;102810.03;;;16.14
64947;BMP280;51469;52.150;4.682;2023-02-19T13:44:19;102810.28;;;16.28
64947;BMP280;51469;52.150;4.682;2023-02-19T13:46:46;102815.59;;;16.37
64947;BMP280;51469;52.150;4.682;2023-02-19T13:52:47;102821.06;;;16.33
64947;BMP280;51469;52.150;4.682;2023-02-19T13:54:48;102823.59;;;16.64
64947;BMP280;51469;52.150;4.682;2023-02-19T13:59:43;102813.47;;;16.75
64947;BMP280;51469;52.150;4.682;2023-02-19T14:02:31;102816.25;;;17.01
64947;BMP280;51469;52.150;4.682;2023-02-19T14:05:05;102822.09;;;17.22
64947;BMP280;51469;52.150;4.682;2023-02-19T14:09:59;102831.88;;;17.42
64947;BMP280;51469;52.150;4.682;2023-02-19T14:12:36;102829.38;;;17.60
64947;BMP280;51469;52.150;4.682;2023-02-19T14:17:48;102826.25;;;17.68
64947;BMP280;51469;52.150;4.682;2023-02-19T14:27:52;102802.91;;;17.69
64947;BMP280;51469;52.150;4.682;2023-02-19T14:30:19;102803.66;;;17.66
64947;BMP280;51469;52.150;4.682;2023-02-19T14:32:46;102798.84;;;17.60
64947;BMP280;51469;52.150;4.682;2023-02-19T14:35:23;102804.25;;;17.49
64947;BMP280;51469;52.150;4.682;2023-02-19T14:37:51;102801.03;;;17.47
64947;BMP280;51469;52.150;4.682;2023-02-19T14:40:23;102803.38;;;17.45
64947;BMP280;51469;52.150;4.682;2023-02-19T14:42:53;102806.53;;;17.43
64947;BMP280;51469;52.150;4.682;2023-02-19T14:45:19;102821.03;;;17.30
64947;BMP280;51469;52.150;4.682;2023-02-19T14:47:46;102818.94;;;17.20
64947;BMP280;51469;52.150;4.682;2023-02-19T14:50:16;102798.09;;;17.07
64947;BMP280;51469;52.150;4.682;2023-02-19T14:52:47;102797.69;;;17.05
64947;BMP280;51469;52.150;4.682;2023-02-19T14:57:52;102794.47;;;17.03
64947;BMP280;51469;52.150;4.682;2023-02-19T15:00:24;102789.03;;;16.81
64947;BMP280;51469;52.150;4.682;2023-02-19T15:02:51;102789.56;;;16.67
64947;BMP280;51469;52.150;4.682;2023-02-19T15:05:22;102793.44;;;16.63
64947;BMP280;51469;52.150;4.682;2023-02-19T15:07:48;102806.22;;;16.67
64947;BMP280;51469;52.150;4.682;2023-02-19T15:10:14;102807.06;;;16.71
64947;BMP280;51469;52.150;4.682;2023-02-19T15:12:58;102813.97;;;16.58
64947;BMP280;51469;52.150;4.682;2023-02-19T15:15:28;102806.59;;;16.43
64947;BMP280;51469;52.150;4.682;2023-02-19T15:17:54;102819.75;;;16.27
64947;BMP280;51469;52.150;4.682;2023-02-19T15:20:23;102820.81;;;16.19
64947;BMP280;51469;52.150;4.682;2023-02-19T15:22:51;102828.13;;;16.08
64947;BMP280;51469;52.150;4.682;2023-02-19T15:25:19;102834.81;;;16.07
64947;BMP280;51469;52.150;4.682;2023-02-19T15:27:45;102847.75;;;16.00
64947;BMP280;51469;52.150;4.682;2023-02-19T15:30:24;102848.66;;;16.07
64947;BMP280;51469;52.150;4.682;2023-02-19T15:32:57;102836.00;;;16.06
64947;BMP280;51469;52.150;4.682;2023-02-19T15:35:24;102841.75;;;15.98
64947;BMP280;51469;52.150;4.682;2023-02-19T15:37:51;102839.81;;;15.98
64947;BMP280;51469;52.150;4.682;2023-02-19T15:40:23;102836.53;;;15.93
64947;BMP280;51469;52.150;4.682;2023-02-19T15:42:50;102837.47;;;16.00
64947;BMP280;51469;52.150;4.682;2023-02-19T15:45:22;102837.91;;;15.83
64947;BMP280;51469;52.150;4.682;2023-02-19T15:47:56;102842.88;;;15.93
64947;BMP280;51469;52.150;4.682;2023-02-19T15:50:33;102846.34;;;16.09
64947;BMP280;51469;52.150;4.682;2023-02-19T16:03:22;102851.53;;;15.92
64947;BMP280;51469;52.150;4.682;2023-02-19T16:06:15;102866.31;;;15.99
64947;BMP280;51469;52.150;4.682;2023-02-19T16:08:42;102860.69;;;15.96
64947;BMP280;51469;52.150;4.682;2023-02-19T16:13:46;102872.53;;;15.58
64947;BMP280;51469;52.150;4.682;2023-02-19T16:16:23;102884.63;;;15.50
64947;BMP280;51469;52.150;4.682;2023-02-19T16:18:50;102878.09;;;15.58
64947;BMP280;51469;52.150;4.682;2023-02-19T16:21:20;102855.31;;;15.46
64947;BMP280;51469;52.150;4.682;2023-02-19T16:23:47;102863.78;;;15.37
64947;BMP280;51469;52.150;4.682;2023-02-19T16:26:14;102860.16;;;15.52
64947;BMP280;51469;52.150;4.682;2023-02-19T16:28:40;102881.94;;;15.54